createdAt,value
2023-01-04T00:01:20.609Z,2.83
2023-01-04T00:04:24.833Z,2.88
2023-01-04T00:07:29.734Z,2.97
2023-01-04T00:10:32.630Z,2.85
2023-01-04T00:13:35.834Z,2.90
2023-01-04T00:16:38.929Z,2.90
2023-01-04T00:19:43.300Z,2.97
2023-01-04T00:22:46.183Z,2.92
2023-01-04T00:25:49.065Z,3.08
2023-01-04T00:28:55.625Z,2.83
2023-01-04T00:31:58.480Z,2.90
2023-01-04T00:35:02.935Z,2.85
2023-01-04T00:38:05.754Z,2.60
2023-01-04T00:41:23.100Z,3.13
2023-01-04T00:44:31.809Z,3.15
2023-01-04T00:47:34.799Z,2.88
2023-01-04T00:50:38.992Z,2.97
2023-01-04T00:53:41.848Z,2.80
2023-01-04T00:56:44.994Z,2.78
2023-01-04T00:59:47.805Z,3.08
2023-01-04T01:02:50.776Z,2.72
2023-01-04T01:05:55.148Z,2.95
2023-01-04T01:08:58.358Z,2.72
2023-01-04T01:12:01.188Z,2.78
2023-01-04T01:15:04.539Z,2.70
2023-01-04T01:18:07.681Z,2.70
2023-01-04T01:21:15.250Z,2.67
2023-01-04T01:24:19.951Z,2.72
2023-01-04T01:27:22.774Z,2.92
2023-01-04T01:30:25.628Z,2.20
2023-01-04T01:33:28.823Z,3.20
2023-01-04T01:36:33.876Z,2.63
2023-01-04T01:39:36.700Z,2.40
2023-01-04T01:42:39.579Z,2.55
2023-01-04T01:45:42.409Z,2.78
2023-01-04T01:48:45.468Z,2.90
2023-01-04T01:51:49.733Z,2.85
2023-01-04T01:54:58.605Z,2.75
2023-01-04T01:58:03.005Z,3.08
2023-01-04T02:01:06.132Z,2.72
2023-01-04T02:04:09.961Z,2.80
2023-01-04T02:07:17.324Z,2.78
2023-01-04T02:10:20.769Z,2.63
2023-01-04T02:13:47.182Z,3.15
2023-01-04T02:17:02.095Z,2.80
2023-01-04T02:20:25.305Z,2.80
2023-01-04T02:23:54.347Z,2.50
2023-01-04T02:27:24.099Z,2.58
2023-01-04T02:31:15.815Z,2.60
2023-01-04T02:34:27.421Z,2.65
2023-01-04T02:37:39.516Z,2.83
2023-01-04T02:40:51.983Z,2.45
2023-01-04T02:44:17.606Z,2.40
2023-01-04T02:47:40.943Z,2.78
2023-01-04T02:50:53.079Z,2.60
2023-01-04T02:53:57.551Z,2.65
2023-01-04T02:57:22.969Z,2.58
2023-01-04T03:00:56.664Z,2.70
2023-01-04T03:04:31.004Z,2.72
2023-01-04T03:07:43.018Z,2.70
2023-01-04T03:10:51.898Z,2.63
2023-01-04T03:13:56.472Z,2.60
2023-01-04T03:17:01.399Z,2.38
2023-01-04T03:20:10.550Z,2.40
2023-01-04T03:23:34.749Z,2.33
2023-01-04T03:26:58.013Z,2.70
2023-01-04T03:30:23.471Z,2.50
2023-01-04T03:33:42.895Z,2.40
2023-01-04T03:36:56.048Z,2.30
2023-01-04T03:40:36.318Z,2.45
2023-01-04T03:44:02.847Z,2.50
2023-01-04T03:47:27.370Z,2.40
2023-01-04T03:50:35.472Z,2.42
2023-01-04T03:53:46.674Z,2.55
2023-01-04T03:56:51.737Z,2.40
2023-01-04T03:59:58.973Z,2.28
2023-01-04T04:03:07.414Z,2.20
2023-01-04T04:06:27.849Z,2.50
2023-01-04T04:09:32.440Z,2.38
2023-01-04T04:12:35.409Z,2.30
2023-01-04T04:15:38.279Z,2.20
2023-01-04T04:18:41.340Z,2.25
2023-01-04T04:21:44.245Z,2.53
2023-01-04T04:24:48.450Z,2.25
2023-01-04T04:27:51.266Z,2.60
2023-01-04T04:30:54.127Z,2.25
2023-01-04T04:33:57.011Z,2.28
2023-01-04T04:36:59.850Z,2.65
2023-01-04T04:40:04.270Z,2.20
2023-01-04T04:43:08.580Z,2.55
2023-01-04T04:46:11.526Z,2.40
2023-01-04T04:49:15.699Z,2.28
2023-01-04T04:52:18.603Z,2.25
2023-01-04T04:55:22.868Z,2.03
2023-01-04T04:58:25.703Z,2.63
2023-01-04T05:01:28.663Z,2.25
2023-01-04T05:04:31.594Z,2.42
2023-01-04T05:07:34.612Z,2.35
2023-01-04T05:10:39.375Z,2.30
2023-01-04T05:13:41.521Z,2.13
2023-01-04T05:16:45.169Z,2.50
2023-01-04T05:19:48.108Z,2.58
2023-01-04T05:22:51.015Z,2.10
2023-01-04T05:25:59.330Z,2.38
2023-01-04T05:29:02.089Z,2.35
2023-01-04T05:32:04.116Z,2.00
2023-01-04T05:35:07.766Z,2.35
2023-01-04T05:38:10.614Z,2.33
2023-01-04T05:41:28.721Z,2.30
2023-01-04T05:44:31.608Z,2.20
2023-01-04T05:47:34.948Z,2.30
2023-01-04T05:50:37.803Z,2.50
2023-01-04T05:53:40.864Z,2.00
2023-01-04T05:56:45.027Z,2.42
2023-01-04T05:59:47.934Z,2.45
2023-01-04T06:02:52.538Z,2.17
2023-01-04T06:05:55.480Z,2.20
2023-01-04T06:08:58.292Z,2.40
2023-01-04T06:12:02.514Z,1.90
2023-01-04T06:15:06.902Z,2.30
2023-01-04T06:18:13.283Z,1.90
2023-01-04T06:21:16.799Z,2.00
2023-01-04T06:24:19.800Z,2.30
2023-01-04T06:27:24.245Z,2.10
2023-01-04T06:30:29.062Z,2.15
2023-01-04T06:33:32.358Z,1.92
2023-01-04T06:36:36.005Z,2.20
2023-01-04T06:39:38.836Z,2.20
2023-01-04T06:42:45.637Z,2.40
2023-01-04T06:45:48.555Z,2.38
2023-01-04T06:48:52.515Z,2.22
2023-01-04T06:51:55.513Z,2.50
2023-01-04T06:54:58.431Z,2.20
2023-01-04T06:58:02.953Z,2.10
2023-01-04T07:01:06.531Z,2.38
2023-01-04T07:04:09.546Z,2.50
2023-01-04T07:07:12.615Z,2.80
2023-01-04T07:10:15.417Z,2.20
2023-01-04T07:13:19.653Z,2.15
2023-01-04T07:16:23.084Z,2.40
2023-01-04T07:19:25.994Z,2.50
2023-01-04T07:22:28.795Z,2.22
2023-01-04T07:25:31.607Z,2.45
2023-01-04T07:28:53.359Z,2.60
2023-01-04T07:31:56.571Z,2.50
2023-01-04T07:34:59.399Z,2.47
2023-01-04T07:38:02.276Z,2.10
2023-01-04T07:41:05.476Z,2.35
2023-01-04T07:44:10.607Z,2.42
2023-01-04T07:47:13.466Z,2.30
2023-01-04T07:50:16.486Z,2.20
2023-01-04T07:53:19.772Z,2.40
2023-01-04T07:56:22.704Z,2.33
2023-01-04T07:59:27.158Z,2.78
2023-01-04T08:02:30.108Z,2.30
2023-01-04T08:05:33.853Z,2.40
2023-01-04T08:08:36.745Z,2.50
2023-01-04T08:11:40.043Z,2.40
2023-01-04T08:14:44.243Z,2.53
2023-01-04T08:17:47.114Z,2.38
2023-01-04T08:20:56.517Z,2.75
2023-01-04T08:24:02.068Z,3.22
2023-01-04T08:27:06.654Z,2.83
2023-01-04T08:30:12.251Z,2.80
2023-01-04T08:33:15.835Z,2.90
2023-01-04T08:36:26.290Z,3.00
2023-01-04T08:39:33.388Z,2.90
2023-01-04T08:42:36.243Z,3.30
2023-01-04T08:45:40.469Z,2.88
2023-01-04T08:48:43.572Z,2.70
2023-01-04T08:51:47.168Z,2.75
2023-01-04T08:54:50.304Z,2.47
2023-01-04T08:57:53.173Z,2.70
2023-01-04T09:01:01.575Z,2.50
2023-01-04T09:04:04.579Z,2.95
2023-01-04T09:07:07.408Z,2.97
2023-01-04T09:10:10.972Z,2.78
2023-01-04T09:13:13.811Z,2.90
2023-01-04T09:16:20.890Z,2.70
2023-01-04T09:19:23.780Z,2.33
2023-01-04T09:22:26.672Z,2.65
2023-01-04T09:25:29.511Z,2.60
2023-01-04T09:28:32.380Z,2.70
2023-01-04T09:31:36.691Z,2.70
2023-01-04T09:34:39.962Z,2.58
2023-01-04T09:37:42.822Z,2.30
2023-01-04T09:40:55.207Z,2.50
2023-01-04T09:44:02.028Z,2.50
2023-01-04T09:47:10.927Z,2.45
2023-01-04T09:50:18.734Z,2.47
2023-01-04T09:53:28.335Z,2.50
2023-01-04T09:56:34.111Z,2.50
2023-01-04T09:59:37.051Z,2.70
2023-01-04T10:02:44.160Z,2.63
2023-01-04T10:05:47.094Z,2.42
2023-01-04T10:08:50.462Z,2.28
2023-01-04T10:12:11.099Z,2.47
2023-01-04T10:15:26.795Z,2.70
2023-01-04T10:22:06.270Z,2.45
2023-01-04T10:25:24.752Z,2.30
2023-01-04T10:28:40.458Z,2.50
2023-01-04T10:31:49.341Z,2.50
2023-01-04T10:34:54.666Z,2.33
2023-01-04T10:38:00.658Z,2.20
2023-01-04T10:41:10.784Z,2.70
2023-01-04T10:44:18.776Z,2.47
2023-01-04T10:47:28.368Z,2.30
2023-01-04T10:50:40.210Z,2.78
2023-01-04T10:53:48.527Z,2.33
2023-01-04T10:56:55.409Z,2.30
2023-01-04T11:00:03.928Z,2.20
2023-01-04T11:03:14.500Z,2.20
2023-01-04T11:06:23.283Z,2.40
2023-01-04T11:09:30.918Z,2.10
2023-01-04T11:12:33.955Z,2.25
2023-01-04T11:15:37.074Z,2.08
2023-01-04T11:18:43.782Z,2.20
2023-01-04T11:21:52.859Z,2.08
2023-01-04T11:28:29.773Z,2.15
2023-01-04T11:31:44.711Z,2.40
2023-01-04T11:34:51.975Z,2.17
2023-01-04T11:38:12.320Z,2.20
2023-01-04T11:41:17.788Z,2.22
2023-01-04T11:44:21.124Z,2.40
2023-01-04T11:47:28.294Z,2.22
2023-01-04T11:50:42.102Z,2.60
2023-01-04T11:53:47.244Z,2.40
2023-01-04T11:57:05.872Z,2.10
2023-01-04T12:00:17.570Z,2.00
2023-01-04T12:03:27.207Z,2.03
2023-01-04T12:06:39.062Z,2.10
2023-01-04T12:09:43.405Z,2.20
2023-01-04T12:12:46.240Z,1.90
2023-01-04T12:16:01.092Z,1.98
2023-01-04T12:19:05.187Z,2.78
2023-01-04T12:22:22.405Z,2.33
2023-01-04T12:25:39.384Z,2.05
2023-01-04T12:28:44.402Z,1.85
2023-01-04T12:31:47.258Z,1.92
2023-01-04T12:34:50.359Z,2.20
2023-01-04T12:37:53.245Z,2.00
2023-01-04T12:40:57.428Z,2.10
2023-01-04T12:44:01.206Z,2.00
2023-01-04T12:47:21.696Z,2.00
2023-01-04T12:50:27.623Z,2.28
2023-01-04T12:53:59.715Z,2.30
2023-01-04T12:57:37.691Z,1.90
2023-01-04T13:01:09.874Z,1.90
2023-01-04T13:04:39.016Z,2.05
2023-01-04T13:07:45.784Z,1.80
2023-01-04T13:10:51.624Z,2.15
2023-01-04T13:14:02.906Z,2.10
2023-01-04T13:17:16.553Z,1.80
2023-01-04T13:20:22.620Z,1.90
2023-01-04T13:23:27.695Z,1.92
2023-01-04T13:26:37.595Z,2.13
2023-01-04T13:29:42.812Z,1.90
2023-01-04T13:33:24.436Z,1.75
2023-01-04T13:36:12.837Z,1.67
2023-01-04T13:39:15.778Z,1.90
2023-01-04T13:42:26.453Z,1.90
2023-01-04T13:45:52.181Z,1.80
2023-01-04T13:49:00.617Z,2.00
2023-01-04T13:52:44.842Z,1.75
2023-01-04T13:55:40.119Z,1.40
2023-01-04T13:58:44.815Z,1.70
2023-01-04T14:01:50.019Z,2.08
2023-01-04T14:04:53.046Z,1.58
2023-01-04T14:07:55.986Z,1.98
2023-01-04T14:10:58.974Z,2.00
2023-01-04T14:14:01.899Z,1.80
2023-01-04T14:17:19.291Z,1.80
2023-01-04T14:20:37.025Z,1.80
2023-01-04T14:23:39.894Z,1.75
2023-01-04T14:26:43.664Z,1.60
2023-01-04T14:29:46.576Z,2.03
2023-01-04T14:32:57.327Z,1.90
2023-01-04T14:36:05.364Z,1.80
2023-01-04T14:39:18.590Z,1.80
2023-01-04T14:42:26.450Z,1.70
2023-01-04T14:45:29.298Z,1.73
2023-01-04T14:48:33.416Z,2.00
2023-01-04T14:51:39.085Z,1.92
2023-01-04T14:54:41.953Z,1.60
2023-01-04T14:57:45.328Z,1.63
2023-01-04T15:00:48.216Z,1.70
2023-01-04T15:03:52.558Z,1.77
2023-01-04T15:06:58.324Z,1.83
2023-01-04T15:10:01.115Z,1.60
2023-01-04T15:13:04.395Z,1.70
2023-01-04T15:16:08.294Z,1.70
2023-01-04T15:19:12.508Z,1.60
2023-01-04T15:22:15.367Z,1.65
2023-01-04T15:25:18.465Z,2.00
2023-01-04T15:28:22.069Z,1.65
2023-01-04T15:31:31.232Z,1.73
2023-01-04T15:34:44.823Z,1.73
2023-01-04T15:37:49.835Z,1.40
2023-01-04T15:40:52.623Z,1.80
2023-01-04T15:43:55.432Z,1.48
2023-01-04T15:46:59.393Z,1.80
2023-01-04T15:50:04.343Z,1.60
2023-01-04T15:53:08.071Z,1.70
2023-01-04T15:56:13.456Z,1.45
2023-01-04T15:59:16.287Z,1.60
2023-01-04T16:02:19.334Z,1.75
2023-01-04T16:05:23.734Z,1.60
2023-01-04T16:08:26.616Z,1.60
2023-01-04T16:11:29.481Z,1.40
2023-01-04T16:14:32.341Z,1.70
2023-01-04T16:17:35.293Z,1.70
2023-01-04T16:20:41.907Z,1.70
2023-01-04T16:23:44.720Z,1.65
2023-01-04T16:26:47.539Z,1.50
2023-01-04T16:29:51.515Z,1.60
2023-01-04T16:32:54.697Z,1.75
2023-01-04T16:36:03.524Z,1.70
2023-01-04T16:39:06.634Z,1.80
2023-01-04T16:42:11.129Z,1.67
2023-01-04T16:45:15.392Z,1.55
2023-01-04T16:48:18.795Z,1.70
2023-01-04T16:51:24.653Z,1.73
2023-01-04T16:54:27.583Z,1.55
2023-01-04T16:57:30.424Z,1.42
2023-01-04T17:00:33.367Z,1.58
2023-01-04T17:03:36.376Z,1.50
2023-01-04T17:06:42.735Z,1.40
2023-01-04T17:09:45.551Z,1.70
2023-01-04T17:12:49.227Z,1.48
2023-01-04T17:15:52.239Z,1.42
2023-01-04T17:18:56.148Z,1.50
2023-01-04T17:22:00.323Z,1.65
2023-01-04T17:25:03.324Z,1.55
2023-01-04T17:28:06.170Z,1.45
2023-01-04T17:31:13.640Z,1.80
2023-01-04T17:34:22.615Z,1.67
2023-01-04T17:37:30.695Z,1.50
2023-01-04T17:40:33.819Z,1.40
2023-01-04T17:43:36.984Z,1.77
2023-01-04T17:46:39.933Z,1.50
2023-01-04T17:49:42.792Z,1.20
2023-01-04T17:52:47.695Z,1.52
2023-01-04T17:55:50.495Z,1.27
2023-01-04T17:58:53.391Z,1.48
2023-01-04T18:01:56.212Z,1.67
2023-01-04T18:04:59.398Z,1.58
2023-01-04T18:08:03.539Z,1.50
2023-01-04T18:11:08.419Z,1.35
2023-01-04T18:14:14.063Z,1.77
2023-01-04T18:17:17.405Z,1.60
2023-01-04T18:20:24.885Z,1.60
2023-01-04T18:23:30.233Z,1.50
2023-01-04T18:26:53.470Z,1.33
2023-01-04T18:29:56.954Z,1.33
2023-01-04T18:32:59.862Z,1.52
2023-01-04T18:36:04.281Z,1.40
2023-01-04T18:39:08.519Z,1.40
2023-01-04T18:42:11.476Z,1.70
2023-01-04T18:45:14.323Z,1.60
2023-01-04T18:48:17.203Z,1.50
2023-01-04T18:51:20.755Z,1.30
2023-01-04T18:54:25.036Z,1.77
2023-01-04T18:57:28.348Z,1.50
2023-01-04T19:00:31.202Z,1.50
2023-01-04T19:03:36.736Z,1.33
2023-01-04T19:06:40.971Z,1.30
2023-01-04T19:09:45.268Z,1.60
2023-01-04T19:12:48.139Z,1.50
2023-01-04T19:15:50.956Z,1.40
2023-01-04T19:18:53.780Z,1.38
2023-01-04T19:21:56.718Z,1.50
2023-01-04T19:25:00.971Z,1.20
2023-01-04T19:28:04.243Z,1.52
2023-01-04T19:31:08.771Z,1.70
2023-01-04T19:34:11.645Z,1.50
2023-01-04T19:37:14.479Z,1.50
2023-01-04T19:40:18.979Z,1.42
2023-01-04T19:43:21.806Z,1.50
2023-01-04T19:46:24.658Z,1.38
2023-01-04T19:49:27.671Z,1.40
2023-01-04T19:52:34.206Z,1.30
2023-01-04T19:55:41.667Z,1.45
2023-01-04T19:58:45.203Z,1.60
2023-01-04T20:01:48.165Z,1.30
2023-01-04T20:04:51.154Z,1.40
2023-01-04T20:07:53.974Z,1.40
2023-01-04T20:11:00.627Z,1.42
2023-01-04T20:14:03.438Z,1.40
2023-01-04T20:17:06.674Z,1.40
2023-01-04T20:20:10.777Z,1.58
2023-01-04T20:23:14.721Z,1.50
2023-01-04T20:26:20.382Z,1.40
2023-01-04T20:29:23.163Z,1.40
2023-01-04T20:32:26.010Z,1.63
2023-01-04T20:35:29.128Z,1.42
2023-01-04T20:38:37.761Z,1.67
2023-01-04T20:42:04.468Z,1.33
2023-01-04T20:45:08.607Z,1.30
2023-01-04T20:48:11.499Z,1.30
2023-01-04T20:51:17.204Z,1.27
2023-01-04T20:54:20.055Z,1.48
2023-01-04T20:57:24.348Z,1.50
2023-01-04T21:00:27.179Z,1.50
2023-01-04T21:03:30.125Z,1.30
2023-01-04T21:06:34.840Z,1.20
2023-01-04T21:09:37.641Z,1.15
2023-01-04T21:12:41.928Z,1.40
2023-01-04T21:15:44.781Z,1.35
2023-01-04T21:18:47.678Z,1.55
2023-01-04T21:21:50.521Z,1.40
2023-01-04T21:24:53.361Z,1.30
2023-01-04T21:28:00.638Z,1.30
2023-01-04T21:31:03.749Z,1.33
2023-01-04T21:34:12.452Z,1.30
2023-01-04T21:37:17.229Z,1.20
2023-01-04T21:40:20.333Z,1.23
2023-01-04T21:43:24.483Z,1.63
2023-01-04T21:46:28.785Z,1.50
2023-01-04T21:49:31.831Z,1.58
2023-01-04T21:52:34.718Z,1.30
2023-01-04T21:55:37.560Z,1.00
2023-01-04T21:58:41.874Z,1.30
2023-01-04T22:01:44.984Z,1.88
2023-01-04T22:04:48.003Z,1.30
2023-01-04T22:07:50.891Z,1.20
2023-01-04T22:10:54.614Z,1.38
2023-01-04T22:13:58.925Z,1.10
2023-01-04T22:17:02.061Z,1.30
2023-01-04T22:20:05.422Z,1.35
2023-01-04T22:23:08.268Z,1.50
2023-01-04T22:26:11.842Z,1.40
2023-01-04T22:29:16.151Z,1.25
2023-01-04T22:32:18.952Z,1.10
2023-01-04T22:35:21.889Z,1.00
2023-01-04T22:38:24.687Z,1.30
2023-01-04T22:41:29.335Z,1.30
2023-01-04T22:44:33.702Z,1.38
2023-01-04T22:47:37.177Z,1.20
2023-01-04T22:50:40.158Z,1.13
2023-01-04T22:53:43.124Z,1.33
2023-01-04T22:56:46.011Z,1.30
2023-01-04T22:59:50.347Z,1.25
2023-01-04T23:02:53.263Z,1.35
2023-01-04T23:05:56.158Z,1.30
2023-01-04T23:09:01.181Z,1.10
2023-01-04T23:12:04.053Z,1.25
2023-01-04T23:15:09.825Z,1.33
2023-01-04T23:18:12.641Z,1.13
2023-01-04T23:21:16.895Z,1.38
2023-01-04T23:24:19.748Z,1.40
2023-01-04T23:27:22.565Z,1.40
2023-01-04T23:30:26.744Z,1.23
2023-01-04T23:33:36.060Z,1.20
2023-01-04T23:36:41.359Z,1.20
2023-01-04T23:39:44.289Z,1.30
2023-01-04T23:42:47.207Z,1.25
2023-01-04T23:45:51.446Z,1.30
2023-01-04T23:48:54.292Z,1.30
2023-01-04T23:51:57.843Z,1.17
2023-01-04T23:55:00.638Z,1.25
2023-01-04T23:58:03.487Z,1.48
